Time;durP1;ratioP1;P1;durP2;ratioP2;P2;SDS_P1;SDS_P2;PMS_P1;PMS_P2;Temp;Humidity;BMP_temperature;BMP_pressure;BME280_temperature;BME280_humidity;BME280_pressure;Samples;Min_cycle;Max_cycle;Signal;HPM_P1;HPM_P2
2021/05/24 00:00:36;;;;;;;;;;;7.10;99.30;;;;;;5026780;28;20036;-67
2021/05/24 00:03:04;;;;;;;13.65;7.50;;;7.20;99.40;;;;;;5026689;28;19905;-67
2021/05/24 00:05:33;;;;;;;12.73;6.72;;;7.20;99.40;;;;;;5026341;28;20335;-67
2021/05/24 00:07:59;;;;;;;14.52;6.63;;;7.10;99.40;;;;;;5026718;28;20033;-67
2021/05/24 00:10:27;;;;;;;11.43;4.57;;;7.10;99.40;;;;;;5026328;28;20979;-66
2021/05/24 00:12:56;;;;;;;6.82;2.70;;;7.20;99.50;;;;;;5026471;28;20034;-66
2021/05/24 00:15:30;;;;;;;5.13;2.30;;;7.20;99.50;;;;;;5026554;28;20346;-67
2021/05/24 00:17:56;;;;;;;5.40;1.70;;;7.20;99.60;;;;;;5026148;28;20486;-67
2021/05/24 00:20:26;;;;;;;;;;;7.20;99.80;;;;;;5027149;28;20570;-66
2021/05/24 00:22:53;;;;;;;2.28;1.13;;;7.30;99.90;;;;;;5026076;28;19909;-65
2021/05/24 00:25:19;;;;;;;2.90;0.85;;;7.30;99.70;;;;;;5026090;28;20401;-66
2021/05/24 00:27:46;;;;;;;4.07;1.33;;;7.40;99.60;;;;;;5024537;28;20134;-67
2021/05/24 00:30:12;;;;;;;7.95;1.50;;;7.40;99.50;;;;;;5026475;28;20056;-65
2021/05/24 00:32:39;;;;;;;8.05;2.00;;;7.40;99.40;;;;;;5026010;28;20041;-66
2021/05/24 00:35:06;;;;;;;8.57;1.27;;;7.40;99.40;;;;;;5026217;28;20021;-65
2021/05/24 00:37:31;;;;;;;7.40;1.33;;;7.40;99.30;;;;;;5026318;28;20033;-66
2021/05/24 00:39:57;;;;;;;;;;;7.40;99.30;;;;;;5026007;28;20025;-66
2021/05/24 00:42:22;;;;;;;5.35;1.02;;;7.40;99.30;;;;;;5026312;28;19909;-66
2021/05/24 00:44:48;;;;;;;;;;;7.30;99.20;;;;;;5026160;28;20048;-65
2021/05/24 00:47:13;;;;;;;7.95;1.02;;;7.30;99.10;;;;;;5026198;28;19908;-66
2021/05/24 00:49:39;;;;;;;;;;;7.20;99.10;;;;;;5027795;28;20094;-66
2021/05/24 00:52:05;;;;;;;5.53;1.20;;;7.20;99.00;;;;;;5030310;28;19909;-66
2021/05/24 00:54:30;;;;;;;;;;;7.10;99.00;;;;;;5030480;28;20033;-66
2021/05/24 00:56:59;;;;;;;5.50;0.80;;;7.10;99.10;;;;;;5029823;28;19916;-65
2021/05/24 00:59:25;;;;;;;2.15;1.00;;;7.10;99.20;;;;;;5030204;28;20438;-66
2021/05/24 01:01:51;;;;;;;;;;;7.10;99.30;;;;;;5030458;28;20634;-66
2021/05/24 01:04:19;;;;;;;1.80;0.65;;;7.10;99.40;;;;;;5028572;28;19959;-66
2021/05/24 01:06:45;;;;;;;6.45;1.02;;;7.10;99.40;;;;;;5029512;28;20440;-66
2021/05/24 01:09:11;;;;;;;3.10;0.70;;;7.10;99.30;;;;;;5030040;28;20040;-67
2021/05/24 01:11:36;;;;;;;;;;;7.10;99.50;;;;;;5029567;28;20018;-66
2021/05/24 01:14:03;;;;;;;4.57;0.70;;;7.20;99.60;;;;;;5029841;28;20301;-67
2021/05/24 01:16:30;;;;;;;4.30;0.75;;;7.10;99.60;;;;;;5029389;28;20112;-66
2021/05/24 01:18:56;;;;;;;1.92;0.80;;;7.10;99.60;;;;;;5029648;28;20036;-66
2021/05/24 01:21:23;;;;;;;1.40;0.63;;;7.20;99.60;;;;;;5029842;28;20021;-66
2021/05/24 01:23:50;;;;;;;8.70;0.77;;;7.20;99.70;;;;;;5029274;28;20029;-67
2021/05/24 01:26:18;;;;;;;2.90;1.30;;;7.30;99.70;;;;;;5028962;28;20029;-67
2021/05/24 01:28:44;;;;;;;7.57;1.05;;;7.40;99.70;;;;;;5028849;28;20154;-65
2021/05/24 01:31:09;;;;;;;;;;;7.40;99.70;;;;;;5029834;28;20522;-67
2021/05/24 01:33:36;;;;;;;6.55;0.65;;;7.50;99.70;;;;;;5029547;28;20068;-66
2021/05/24 01:36:07;;;;;;;1.45;0.60;;;7.50;99.60;;;;;;5028980;28;20025;-67
2021/05/24 01:38:37;;;;;;;3.85;0.73;;;7.50;99.50;;;;;;5029340;28;20610;-66
2021/05/24 01:41:04;;;;;;;4.20;0.80;;;7.50;99.40;;;;;;5028739;28;20018;-66
2021/05/24 01:43:30;;;;;;;3.00;1.48;;;7.50;99.50;;;;;;5028959;28;20044;-66
2021/05/24 01:45:56;;;;;;;8.98;2.00;;;7.50;99.40;;;;;;5029366;28;20098;-67
2021/05/24 01:48:22;;;;;;;;;;;7.40;99.40;;;;;;5029410;28;20391;-66
2021/05/24 01:50:48;;;;;;;6.27;1.67;;;7.40;99.10;;;;;;5029285;28;20627;-67
2021/05/24 01:53:13;;;;;;;;;;;7.30;99.00;;;;;;5029094;28;20025;-66
2021/05/24 01:55:39;;;;;;;5.68;1.10;;;7.30;99.10;;;;;;5027086;28;20297;-66
2021/05/24 01:58:05;;;;;;;;;;;7.40;99.30;;;;;;5029490;28;20379;-67
2021/05/24 02:00:31;;;;;;;4.82;1.13;;;7.40;99.40;;;;;;5028137;28;19912;-66
2021/05/24 02:02:57;;;;;;;;;;;7.50;99.40;;;;;;5028996;28;20875;-67
2021/05/24 02:05:24;;;;;;;1.98;0.73;;;7.60;99.00;;;;;;5028880;28;19996;-66
2021/05/24 02:07:51;;;;;;;2.22;0.60;;;7.60;98.70;;;;;;5028711;28;20036;-67
2021/05/24 02:10:21;;;;;;;1.85;0.60;;;7.70;98.60;;;;;;5027935;28;20497;-67
2021/05/24 02:12:48;;;;;;;4.05;0.82;;;7.70;98.40;;;;;;5028393;28;20093;-67
2021/05/24 02:15:18;;;;;;;2.58;0.70;;;7.60;98.50;;;;;;5028641;28;20110;-66
2021/05/24 02:17:44;;;;;;;0.93;0.50;;;7.60;98.30;;;;;;5026831;28;20112;-67
2021/05/24 02:20:11;;;;;;;2.63;0.65;;;7.50;98.50;;;;;;5028617;28;20176;-66
2021/05/24 02:22:38;;;;;;;7.88;1.67;;;7.40;98.50;;;;;;5028366;28;20079;-66
2021/05/24 02:25:07;;;;;;;5.68;0.70;;;7.30;98.40;;;;;;5027802;28;20025;-67
2021/05/24 02:27:33;;;;;;;2.67;0.77;;;7.20;98.50;;;;;;5028259;28;20064;-67
2021/05/24 02:29:58;;;;;;;;;;;7.20;98.60;;;;;;5028794;28;20045;-68
2021/05/24 02:32:24;;;;;;;5.35;0.80;;;7.10;98.80;;;;;;5028682;28;20400;-66
2021/05/24 02:34:50;;;;;;;;;;;7.00;98.90;;;;;;5028806;28;20030;-65
2021/05/24 02:37:16;;;;;;;8.48;1.80;;;7.00;99.00;;;;;;5027887;28;20397;-66
2021/05/24 02:39:42;;;;;;;1.40;0.65;;;6.90;99.10;;;;;;5027781;28;20107;-67
2021/05/24 02:42:08;;;;;;;;;;;6.90;99.20;;;;;;5028352;28;20029;-66
2021/05/24 02:44:33;;;;;;;2.15;0.80;;;7.00;99.60;;;;;;5028286;28;19909;-66
2021/05/24 02:46:59;;;;;;;;;;;7.00;99.40;;;;;;5028441;28;20032;-66
2021/05/24 02:49:25;;;;;;;3.45;0.77;;;7.10;99.60;;;;;;5028227;28;19916;-67
2021/05/24 02:51:50;;;;;;;;;;;7.20;99.60;;;;;;5028349;28;20034;-66
2021/05/24 02:54:16;;;;;;;7.00;0.70;;;7.20;99.50;;;;;;5027687;28;19959;-66
2021/05/24 02:56:41;;;;;;;;;;;7.20;99.50;;;;;;5028126;28;20029;-66
2021/05/24 02:59:07;;;;;;;2.28;0.70;;;7.30;99.40;;;;;;5028068;28;20305;-66
2021/05/24 03:01:33;;;;;;;;;;;7.20;99.40;;;;;;5028346;28;20021;-66
2021/05/24 03:04:02;;;;;;;5.65;1.98;;;7.30;99.50;;;;;;5026435;28;19917;-67
2021/05/24 03:06:28;;;;;;;9.48;0.80;;;7.30;99.60;;;;;;5027344;28;20469;-67
2021/05/24 03:08:54;;;;;;;;;;;7.30;99.50;;;;;;5026487;28;20030;-68
2021/05/24 03:11:22;;;;;;;5.30;1.15;;;7.30;99.30;;;;;;5025900;28;19915;-67
2021/05/24 03:13:49;;;;;;;6.22;0.73;;;7.40;99.20;;;;;;5027058;28;20025;-67
2021/05/24 03:16:15;;;;;;;5.57;1.50;;;7.40;99.10;;;;;;5027385;28;20422;-66
2021/05/24 03:18:41;;;;;;;7.53;1.38;;;7.40;99.10;;;;;;5027496;28;20033;-65
2021/05/24 03:21:06;;;;;;;;;;;7.30;99.00;;;;;;5027618;28;20043;-66
2021/05/24 03:23:32;;;;;;;3.13;0.60;;;7.40;99.00;;;;;;5027027;28;19944;-66
2021/05/24 03:25:58;;;;;;;;;;;7.40;99.00;;;;;;5027569;28;20554;-66
2021/05/24 03:28:23;;;;;;;6.68;0.80;;;7.50;98.80;;;;;;5026937;28;19921;-65
2021/05/24 03:30:49;;;;;;;;;;;7.60;98.50;;;;;;5027866;28;20464;-66
2021/05/24 03:33:14;;;;;;;5.90;0.60;;;7.70;98.20;;;;;;5026924;28;19913;-67
2021/05/24 03:35:40;;;;;;;;;;;7.70;98.20;;;;;;5027643;28;20052;-66
2021/05/24 03:38:06;;;;;;;1.63;0.65;;;7.90;98.00;;;;;;5026502;28;19938;-66
2021/05/24 03:40:32;;;;;;;3.05;0.80;;;8.00;97.60;;;;;;5027258;28;20017;-66
2021/05/24 03:42:57;;;;;;;;;;;8.10;97.30;;;;;;5027366;28;20581;-68
2021/05/24 03:45:27;;;;;;;3.75;0.50;;;8.20;97.20;;;;;;5027347;28;19908;-68
2021/05/24 03:47:53;;;;;;;3.30;0.60;;;8.30;97.20;;;;;;5027001;28;20025;-66
2021/05/24 03:50:19;;;;;;;;;;;8.40;97.10;;;;;;5027060;28;20061;-66
2021/05/24 03:52:45;;;;;;;2.80;0.70;;;8.50;97.00;;;;;;5026497;28;20001;-68
2021/05/24 03:55:14;;;;;;;5.72;0.68;;;8.70;96.80;;;;;;5026958;28;20037;-69
2021/05/24 03:57:39;;;;;;;7.38;0.80;;;8.80;96.40;;;;;;5026975;28;20117;-68
2021/05/24 04:00:06;;;;;;;;;;;8.90;96.30;;;;;;5027157;28;20109;-70
2021/05/24 04:02:31;;;;;;;4.30;0.70;;;9.00;95.80;;;;;;5026693;28;19909;-69
2021/05/24 04:04:58;;;;;;;;;;;9.20;96.10;;;;;;5026738;28;20034;-68
2021/05/24 04:07:25;;;;;;;2.58;1.10;;;9.40;95.50;;;;;;5026714;28;19909;-69
2021/05/24 04:09:51;;;;;;;5.10;1.10;;;9.60;95.30;;;;;;5026050;28;20041;-69
2021/05/24 04:12:18;;;;;;;17.33;1.77;;;9.80;95.10;;;;;;5026746;28;20030;-69
2021/05/24 04:14:44;;;;;;;2.50;0.98;;;10.00;94.70;;;;;;5026268;28;20072;-67
2021/05/24 04:17:13;;;;;;;;;;;10.30;93.80;;;;;;5026931;28;20029;-67
2021/05/24 04:19:43;;;;;;;3.60;1.13;;;10.50;93.40;;;;;;5026350;28;19908;-67
2021/05/24 04:22:10;;;;;;;2.22;0.60;;;10.70;93.20;;;;;;5026437;28;20025;-66
2021/05/24 04:24:36;;;;;;;6.30;0.60;;;11.20;92.20;;;;;;5025994;28;20033;-67
2021/05/24 04:27:01;;;;;;;;;;;11.50;91.80;;;;;;5026334;28;20109;-67
2021/05/24 04:29:27;;;;;;;6.13;0.63;;;11.60;91.20;;;;;;5025228;28;19916;-66
2021/05/24 04:31:52;;;;;;;;;;;11.70;91.30;;;;;;5026922;28;20057;-67
2021/05/24 04:34:18;;;;;;;7.25;0.80;;;11.70;91.50;;;;;;5026270;28;19946;-66
2021/05/24 04:36:43;;;;;;;;;;;11.70;91.70;;;;;;5026706;28;20534;-68
2021/05/24 04:39:09;;;;;;;3.67;0.70;;;11.70;91.80;;;;;;5024255;28;19931;-68
2021/05/24 04:41:36;;;;;;;;;;;11.80;92.10;;;;;;5026902;28;20057;-68
2021/05/24 04:46:56;;;;;;;7.07;1.40;;;12.00;92.20;;;;;;5021391;28;20378;-67
2021/05/24 04:49:22;;;;;;;;;;;12.20;92.30;;;;;;5026780;28;20572;-66
2021/05/24 04:51:47;;;;;;;2.55;0.63;;;12.50;91.90;;;;;;5026080;28;20309;-66
2021/05/24 04:54:13;;;;;;;;;;;12.60;91.70;;;;;;5026128;28;20029;-67
2021/05/24 04:56:38;;;;;;;4.85;0.60;;;12.80;90.90;;;;;;5026066;28;19913;-67
2021/05/24 04:59:04;;;;;;;;;;;13.10;90.60;;;;;;5026790;28;20076;-66
2021/05/24 05:01:30;;;;;;;1.65;0.70;;;13.30;89.90;;;;;;5026355;28;19916;-66
2021/05/24 05:03:55;;;;;;;;;;;13.60;89.10;;;;;;5026294;28;20403;-67
2021/05/24 05:06:21;;;;;;;1.52;0.40;;;13.80;87.70;;;;;;5026334;28;19928;-67
2021/05/24 05:08:47;;;;;;;1.65;0.40;;;14.10;87.00;;;;;;5025593;28;20052;-67
2021/05/24 05:11:15;;;;;;;0.93;0.40;;;14.30;84.00;;;;;;5025987;28;20033;-69
2021/05/24 05:13:42;;;;;;;2.33;0.30;;;14.40;83.30;;;;;;5026117;28;20642;-66
2021/05/24 05:16:09;;;;;;;1.95;0.40;;;14.60;83.20;;;;;;5026134;28;20030;-67
2021/05/24 05:18:35;;;;;;;4.38;0.50;;;14.80;83.70;;;;;;5030924;28;20116;-67
2021/05/24 05:21:01;;;;;;;2.15;0.60;;;15.00;82.00;;;;;;5026059;28;20120;-66
2021/05/24 05:23:26;;;;;;;1.58;0.60;;;15.10;81.70;;;;;;5025545;28;20033;-65
2021/05/24 05:25:52;;;;;;;3.60;0.60;;;15.10;81.90;;;;;;5026198;28;20044;-66
2021/05/24 05:28:21;;;;;;;6.15;0.63;;;15.20;82.40;;;;;;5025360;28;20088;-66
2021/05/24 05:30:46;;;;;;;2.90;0.50;;;15.30;82.20;;;;;;5025970;28;20132;-65
2021/05/24 05:33:12;;;;;;;2.08;0.47;;;15.50;81.00;;;;;;5025572;28;20116;-65
2021/05/24 05:35:38;;;;;;;6.95;0.50;;;15.90;78.70;;;;;;5027072;28;20030;-66
2021/05/24 05:38:03;;;;;;;2.05;0.70;;;16.10;78.10;;;;;;5028781;28;20673;-64
2021/05/24 05:40:31;;;;;;;3.88;0.55;;;16.40;76.90;;;;;;5029379;28;20516;-65
2021/05/24 05:42:57;;;;;;;7.05;0.63;;;16.90;76.00;;;;;;5029200;28;20026;-65
2021/05/24 05:45:23;;;;;;;5.18;1.00;;;17.50;73.80;;;;;;5029021;28;20033;-67
2021/05/24 05:47:48;;;;;;;4.45;1.30;;;18.20;71.10;;;;;;5029290;28;20442;-66
2021/05/24 05:50:14;;;;;;;2.10;1.20;;;18.70;68.50;;;;;;5029159;28;20096;-64
2021/05/24 05:52:40;;;;;;;4.45;0.90;;;19.30;66.00;;;;;;5028715;28;20040;-66
2021/05/24 05:55:07;;;;;;;3.75;0.98;;;20.10;62.50;;;;;;5029415;28;20033;-65
2021/05/24 05:57:33;;;;;;;6.25;1.05;;;21.00;59.40;;;;;;5029358;28;20079;-66
2021/05/24 05:59:58;;;;;;;3.85;1.00;;;21.70;57.50;;;;;;5028941;28;20029;-66
2021/05/24 06:02:24;;;;;;;5.70;1.20;;;22.30;55.20;;;;;;5029179;28;20026;-67
2021/05/24 06:04:50;;;;;;;3.53;0.90;;;23.10;52.60;;;;;;5028623;28;20033;-66
2021/05/24 06:07:16;;;;;;;2.95;0.65;;;23.90;49.70;;;;;;5028568;28;20113;-67
2021/05/24 06:09:42;;;;;;;7.70;4.15;;;24.70;46.80;;;;;;5028553;28;20069;-65
2021/05/24 06:12:08;;;;;;;5.63;2.17;;;25.40;43.80;;;;;;5029074;28;20465;-67
2021/05/24 06:14:34;;;;;;;4.20;1.20;;;26.10;41.80;;;;;;5028905;28;20026;-67
2021/05/24 06:17:00;;;;;;;7.68;1.25;;;26.40;37.70;;;;;;5028649;28;20401;-66
2021/05/24 06:19:25;;;;;;;5.28;0.70;;;26.50;36.40;;;;;;5029126;28;20034;-67
2021/05/24 06:21:51;;;;;;;2.40;0.80;;;27.10;35.50;;;;;;5028297;28;20040;-67
2021/05/24 06:24:17;;;;;;;2.60;0.80;;;26.30;35.70;;;;;;5026952;28;20033;-66
2021/05/24 06:26:42;;;;;;;16.00;1.88;;;26.30;36.60;;;;;;5026509;28;20557;-66
2021/05/24 06:29:08;;;;;;;2.47;0.75;;;26.40;36.30;;;;;;5027628;28;20115;-65
2021/05/24 06:31:34;;;;;;;3.97;0.75;;;25.60;38.40;;;;;;5022646;28;20042;-66
2021/05/24 06:33:59;;;;;;;2.40;0.82;;;25.30;37.60;;;;;;5027493;28;20065;-66
2021/05/24 06:36:25;;;;;;;8.68;1.35;;;25.00;38.60;;;;;;5026672;28;20611;-66
2021/05/24 06:38:51;;;;;;;3.60;0.85;;;25.00;37.80;;;;;;5025462;28;20046;-65
2021/05/24 06:41:17;;;;;;;6.63;0.88;;;24.70;38.80;;;;;;5027342;28;20038;-65
2021/05/24 06:43:43;;;;;;;2.50;0.70;;;24.70;39.10;;;;;;5027594;28;20533;-65
2021/05/24 06:46:09;;;;;;;3.00;0.98;;;24.60;39.60;;;;;;5027485;28;20037;-66
2021/05/24 06:48:34;;;;;;;6.20;0.80;;;24.40;38.60;;;;;;5027099;28;20033;-65
2021/05/24 06:51:00;;;;;;;3.03;1.25;;;24.20;39.80;;;;;;5027019;28;20049;-66
2021/05/24 06:53:26;;;;;;;1.98;0.75;;;24.30;39.80;;;;;;5026953;28;20108;-66
2021/05/24 06:55:51;;;;;;;5.30;0.80;;;24.60;39.20;;;;;;5027063;28;20091;-65
2021/05/24 06:58:17;;;;;;;3.25;0.60;;;24.90;39.30;;;;;;5027443;28;20045;-66
2021/05/24 07:00:43;;;;;;;3.10;0.70;;;25.40;38.10;;;;;;5025681;28;20044;-65
2021/05/24 07:03:08;;;;;;;2.78;1.02;;;24.70;38.50;;;;;;5026836;28;20084;-65
2021/05/24 07:05:34;;;;;;;3.97;0.55;;;24.40;40.00;;;;;;5026194;28;20027;-66
2021/05/24 07:08:00;;;;;;;1.40;0.70;;;24.30;39.80;;;;;;5026644;28;20482;-66
2021/05/24 07:10:26;;;;;;;1.60;0.60;;;24.60;38.90;;;;;;5025572;28;20036;-66
2021/05/24 07:12:52;;;;;;;7.70;0.80;;;24.70;39.30;;;;;;5026568;28;20041;-66
2021/05/24 07:15:18;;;;;;;12.82;0.60;;;25.20;38.50;;;;;;5026591;28;20037;-66
2021/05/24 07:17:43;;;;;;;4.03;0.95;;;25.20;36.20;;;;;;5025545;28;20128;-66
2021/05/24 07:20:10;;;;;;;3.00;0.73;;;24.50;39.10;;;;;;5026629;28;20073;-65
2021/05/24 07:22:36;;;;;;;2.08;0.60;;;24.10;39.90;;;;;;5026399;28;20399;-66
2021/05/24 07:25:04;;;;;;;7.32;0.98;;;23.50;39.10;;;;;;5026854;28;20033;-66
2021/05/24 07:27:29;;;;;;;0.82;0.55;;;22.40;41.70;;;;;;5026309;28;20060;-66
2021/05/24 07:29:55;;;;;;;2.35;0.80;;;22.40;43.20;;;;;;5026595;28;20045;-65
2021/05/24 07:32:20;;;;;;;2.30;0.47;;;22.60;44.90;;;;;;5025631;28;20554;-66
2021/05/24 07:34:46;;;;;;;1.48;0.40;;;22.90;44.00;;;;;;5025705;28;20646;-66
2021/05/24 07:37:13;;;;;;;4.40;0.60;;;22.90;44.90;;;;;;5024867;28;20136;-66
2021/05/24 07:39:39;;;;;;;1.65;0.55;;;23.20;43.00;;;;;;5025680;28;20045;-66
2021/05/24 07:42:06;;;;;;;1.13;0.60;;;23.40;40.90;;;;;;5025184;28;20688;-66
2021/05/24 07:44:34;;;;;;;1.77;0.45;;;23.20;43.60;;;;;;5025589;28;20037;-66
2021/05/24 07:47:01;;;;;;;0.70;0.50;;;23.60;41.60;;;;;;5024765;28;20041;-67
2021/05/24 07:49:27;;;;;;;2.17;0.50;;;23.90;41.20;;;;;;5025514;28;20110;-66
2021/05/24 07:51:53;;;;;;;3.90;0.52;;;24.00;39.30;;;;;;5023544;28;20124;-66
2021/05/24 07:54:19;;;;;;;1.58;0.55;;;23.40;40.40;;;;;;5024016;28;20160;-66
2021/05/24 07:56:45;;;;;;;2.30;0.55;;;23.20;41.90;;;;;;5024467;28;20037;-66
2021/05/24 07:59:12;;;;;;;3.72;0.47;;;22.80;41.70;;;;;;5025828;28;20049;-66
2021/05/24 08:01:37;;;;;;;1.58;0.50;;;23.30;42.40;;;;;;5024083;28;20104;-67
2021/05/24 08:04:04;;;;;;;2.13;0.70;;;23.60;39.60;;;;;;5025715;28;20097;-65
2021/05/24 08:06:29;;;;;;;1.58;0.60;;;22.90;40.80;;;;;;5025807;28;20417;-65
2021/05/24 08:08:55;;;;;;;1.30;0.50;;;22.50;43.20;;;;;;5025700;28;20055;-66
2021/05/24 08:11:21;;;;;;;4.35;0.60;;;22.30;44.50;;;;;;5024467;28;20399;-65
2021/05/24 08:13:46;;;;;;;3.05;0.70;;;22.10;44.30;;;;;;5023866;28;20060;-65
2021/05/24 08:16:13;;;;;;;2.30;0.57;;;22.00;45.80;;;;;;5025673;28;20037;-65
2021/05/24 08:18:43;;;;;;;3.80;0.50;;;22.00;47.70;;;;;;5025875;28;20029;-65
2021/05/24 08:21:09;;;;;;;3.28;0.73;;;22.10;47.30;;;;;;5025090;28;20045;-64
2021/05/24 08:23:35;;;;;;;4.55;0.50;;;22.60;46.10;;;;;;5023783;28;20041;-65
2021/05/24 08:26:02;;;;;;;3.88;0.50;;;22.30;45.50;;;;;;5025816;28;20569;-64
2021/05/24 08:28:28;;;;;;;0.82;0.40;;;22.20;46.60;;;;;;5024500;28;20065;-65
2021/05/24 08:30:54;;;;;;;2.25;0.60;;;22.10;47.50;;;;;;5024612;28;20797;-65
2021/05/24 08:33:21;;;;;;;1.90;0.63;;;22.30;47.30;;;;;;5025297;28;20041;-68
2021/05/24 08:35:48;;;;;;;1.58;0.57;;;22.70;46.80;;;;;;5024521;28;20409;-69
2021/05/24 08:38:14;;;;;;;1.70;0.60;;;22.70;45.90;;;;;;5023241;28;20406;-68
2021/05/24 08:40:41;;;;;;;3.17;0.60;;;22.50;46.10;;;;;;5024821;28;20033;-68
2021/05/24 08:43:07;;;;;;;3.65;0.63;;;22.80;46.80;;;;;;5024819;28;20521;-68
2021/05/24 08:45:37;;;;;;;1.35;0.70;;;23.10;44.00;;;;;;5024381;28;20033;-65
2021/05/24 08:48:07;;;;;;;6.10;1.02;;;22.90;46.30;;;;;;5024232;28;20049;-65
2021/05/24 08:50:33;;;;;;;0.90;0.40;;;22.70;45.10;;;;;;5024929;28;20029;-65
2021/05/24 08:52:58;;;;;;;4.05;0.50;;;22.40;47.50;;;;;;5025506;28;20048;-66
2021/05/24 08:55:24;;;;;;;1.50;0.50;;;22.00;47.40;;;;;;5025327;28;20038;-64
2021/05/24 08:57:50;;;;;;;2.38;0.65;;;22.00;47.60;;;;;;5025380;28;20497;-65
2021/05/24 09:00:19;;;;;;;6.55;0.60;;;21.80;46.20;;;;;;5025284;28;20037;-65
2021/05/24 09:02:47;;;;;;;3.42;0.50;;;21.60;46.30;;;;;;5024745;28;20033;-65
2021/05/24 09:05:14;;;;;;;2.30;0.45;;;21.30;48.30;;;;;;5025104;28;20065;-64
2021/05/24 09:08:06;;;;;;;3.55;0.93;;;20.90;49.60;;;;;;5024861;28;20448;-65
2021/05/24 09:10:35;;;;;;;3.78;0.40;;;20.70;49.80;;;;;;5024769;28;20281;-64
2021/05/24 09:13:14;;;;;;;4.57;0.63;;;20.90;50.50;;;;;;5027795;28;20409;-66
2021/05/24 09:15:45;;;;;;;4.35;0.60;;;21.40;49.80;;;;;;5029053;28;20037;-65
2021/05/24 09:18:11;;;;;;;1.27;0.52;;;22.10;47.90;;;;;;5029164;28;20087;-64
2021/05/24 09:20:42;;;;;;;1.40;0.60;;;21.90;48.00;;;;;;5025792;28;20033;-64
2021/05/24 09:23:25;;;;;;;2.63;1.00;;;21.70;48.20;;;;;;5026341;28;20095;-65
2021/05/24 09:26:01;;;;;;;3.22;0.60;;;21.50;49.30;;;;;;5027029;28;20034;-64
2021/05/24 09:28:40;;;;;;;2.40;0.60;;;21.50;48.60;;;;;;5027398;28;20144;-64
2021/05/24 09:31:20;;;;;;;3.92;0.63;;;21.70;50.00;;;;;;5028937;28;20037;-65
2021/05/24 09:33:50;;;;;;;4.35;0.55;;;22.10;47.80;;;;;;5028747;28;20452;-65
2021/05/24 09:36:16;;;;;;;1.80;0.52;;;22.00;47.60;;;;;;5027247;28;20083;-64
2021/05/24 09:38:44;;;;;;;2.90;0.50;;;21.40;48.90;;;;;;5028192;28;20037;-66
2021/05/24 09:41:12;;;;;;;2.90;1.00;;;21.00;50.70;;;;;;5026688;28;20034;-66
2021/05/24 09:43:57;;;;;;;1.35;0.50;;;20.90;54.00;;;;;;5028275;28;20041;-67
2021/05/24 09:46:23;;;;;;;4.47;1.65;;;21.30;52.50;;;;;;5026554;28;20069;-65
2021/05/24 09:48:56;;;;;;;4.25;0.73;;;21.70;51.10;;;;;;5028272;28;20038;-66
2021/05/24 09:51:24;;;;;;;1.65;0.73;;;22.30;50.30;;;;;;5027917;28;20609;-66
2021/05/24 09:54:04;;;;;;;1.42;0.60;;;22.80;46.70;;;;;;5028692;28;20033;-65
2021/05/24 09:56:39;;;;;;;4.97;1.02;;;22.60;46.60;;;;;;5027787;28;20065;-67
2021/05/24 09:59:11;;;;;;;3.05;0.88;;;22.20;48.60;;;;;;5026244;28;20041;-65
2021/05/24 10:01:44;;;;;;;2.83;0.98;;;21.80;49.10;;;;;;5026502;28;20049;-66
2021/05/24 10:04:15;;;;;;;2.25;0.60;;;21.40;50.90;;;;;;5026463;28;20041;-65
2021/05/24 10:06:42;;;;;;;2.50;0.80;;;21.30;51.30;;;;;;5024722;28;20041;-65
2021/05/24 10:09:10;;;;;;;1.10;0.40;;;21.10;52.40;;;;;;5025536;28;20045;-66
2021/05/24 10:11:38;;;;;;;1.25;0.60;;;20.90;52.60;;;;;;5027422;28;20029;-65
2021/05/24 10:14:04;;;;;;;1.83;0.60;;;20.90;49.90;;;;;;5026925;28;20041;-65
2021/05/24 10:16:36;;;;;;;3.22;0.77;;;20.70;51.70;;;;;;5022939;28;20096;-66
2021/05/24 10:19:06;;;;;;;2.70;0.47;;;20.80;49.40;;;;;;5026545;28;20437;-65
2021/05/24 10:21:33;;;;;;;1.60;0.50;;;20.70;53.40;;;;;;5026774;28;20396;-65
2021/05/24 10:23:59;;;;;;;1.25;0.40;;;20.60;52.30;;;;;;5025505;28;20075;-65
2021/05/24 10:26:26;;;;;;;1.92;0.50;;;20.50;53.50;;;;;;5026423;28;20490;-65
2021/05/24 10:28:54;;;;;;;3.05;0.65;;;20.50;53.70;;;;;;5026580;28;20139;-66
2021/05/24 10:31:27;;;;;;;3.08;0.65;;;20.30;54.20;;;;;;5026627;28;20045;-66
2021/05/24 10:33:54;;;;;;;2.22;0.50;;;20.10;54.80;;;;;;5024950;28;20037;-65
2021/05/24 10:36:30;;;;;;;1.92;0.40;;;19.90;54.70;;;;;;5026255;28;20537;-66
2021/05/24 10:39:15;;;;;;;1.38;0.43;;;19.90;55.20;;;;;;5027420;28;20030;-65
2021/05/24 10:41:42;;;;;;;3.58;0.73;;;20.20;56.10;;;;;;5027060;28;20513;-65
2021/05/24 10:44:10;;;;;;;3.25;0.70;;;20.40;54.90;;;;;;5028474;28;20022;-67
2021/05/24 10:46:35;;;;;;;1.88;0.40;;;20.60;54.40;;;;;;5028324;28;20036;-67
2021/05/24 10:49:10;;;;;;;0.95;0.30;;;20.90;52.40;;;;;;5027820;28;20038;-67
2021/05/24 10:51:45;;;;;;;3.42;0.50;;;20.90;54.40;;;;;;5028403;28;20025;-66
2021/05/24 10:54:11;;;;;;;1.83;0.43;;;20.90;54.90;;;;;;5027006;28;20033;-67
2021/05/24 10:56:44;;;;;;;1.42;0.40;;;20.90;54.90;;;;;;5027738;28;20032;-66
2021/05/24 10:59:37;;;;;;;2.13;0.50;;;20.80;51.10;;;;;;5027852;28;20096;-67
2021/05/24 11:02:07;;;;;;;3.72;0.40;;;21.00;49.90;;;;;;5027874;28;20068;-66
2021/05/24 11:04:55;;;;;;;1.17;0.52;;;20.70;53.40;;;;;;5027547;28;20053;-67
2021/05/24 11:07:39;;;;;;;2.67;0.60;;;20.90;52.50;;;;;;5028003;28;20140;-66
2021/05/24 11:10:19;;;;;;;3.00;0.60;;;20.90;51.50;;;;;;5027775;28;20104;-67
2021/05/24 11:12:47;;;;;;;2.05;0.50;;;20.90;52.50;;;;;;5027855;28;20051;-66
2021/05/24 11:15:17;;;;;;;1.33;0.40;;;20.90;52.40;;;;;;5027942;28;20034;-68
2021/05/24 11:18:02;;;;;;;2.00;0.50;;;21.10;53.50;;;;;;5027848;28;20028;-66
2021/05/24 11:20:51;;;;;;;4.40;0.50;;;21.20;51.40;;;;;;5026259;28;20068;-66
2021/05/24 11:25:50;;;;;;;1.67;0.50;;;20.70;52.10;;;;;;5027525;28;20029;-66
2021/05/24 11:28:16;;;;;;;1.05;0.50;;;20.70;52.90;;;;;;5027720;28;20132;-66
2021/05/24 11:30:42;;;;;;;5.20;0.50;;;20.80;51.60;;;;;;5027487;28;20045;-65
2021/05/24 11:33:47;;;;;;;1.13;0.40;;;20.80;53.30;;;;;;5026722;28;20375;-66
2021/05/24 11:36:19;;;;;;;4.55;0.50;;;20.90;53.30;;;;;;5027318;28;20029;-65
2021/05/24 11:39:04;;;;;;;2.35;0.35;;;20.90;52.10;;;;;;5027116;28;20694;-65
2021/05/24 11:41:31;;;;;;;1.70;0.50;;;20.90;53.70;;;;;;5027460;28;20550;-66
2021/05/24 11:44:00;;;;;;;2.28;0.80;;;21.00;53.20;;;;;;5027394;28;20021;-65
2021/05/24 11:46:25;;;;;;;1.00;0.43;;;21.10;51.80;;;;;;5026856;28;20057;-66
2021/05/24 11:48:53;;;;;;;3.80;0.35;;;20.90;52.60;;;;;;5026582;28;20057;-65
2021/05/24 11:51:33;;;;;;;3.05;0.40;;;20.80;53.90;;;;;;5026935;28;20033;-65
2021/05/24 11:54:08;;;;;;;0.73;0.35;;;20.70;52.90;;;;;;5026722;28;20053;-65
2021/05/24 11:56:46;;;;;;;0.82;0.40;;;20.40;54.40;;;;;;5026687;28;20038;-66
2021/05/24 11:59:16;;;;;;;1.95;0.70;;;20.40;54.00;;;;;;5025769;28;20132;-65
2021/05/24 12:01:45;;;;;;;1.30;0.50;;;20.40;57.30;;;;;;5025407;28;20021;-66
2021/05/24 12:04:19;;;;;;;8.25;0.50;;;20.40;56.80;;;;;;5026651;28;20029;-65
2021/05/24 12:06:53;;;;;;;3.35;0.40;;;20.50;54.60;;;;;;5025476;28;20513;-66
2021/05/24 12:09:35;;;;;;;2.35;0.47;;;20.40;56.00;;;;;;5026780;28;20042;-64
2021/05/24 12:12:02;;;;;;;1.98;0.50;;;20.40;56.70;;;;;;5026984;28;20025;-64
2021/05/24 12:14:28;;;;;;;3.15;0.40;;;20.40;55.60;;;;;;5026623;28;20041;-66
2021/05/24 12:16:55;;;;;;;1.83;0.32;;;20.40;54.70;;;;;;5026695;28;20022;-66
2021/05/24 12:19:23;;;;;;;1.05;0.40;;;20.20;55.60;;;;;;5025985;28;20079;-65
2021/05/24 12:21:49;;;;;;;4.53;0.55;;;20.00;56.20;;;;;;5026424;28;20013;-66
2021/05/24 12:24:16;;;;;;;0.70;0.40;;;19.80;58.10;;;;;;5026485;28;20612;-65
2021/05/24 12:26:47;;;;;;;6.13;0.30;;;19.80;58.00;;;;;;5026440;28;20029;-66
2021/05/24 12:29:22;;;;;;;0.82;0.30;;;19.80;58.30;;;;;;5026116;28;20072;-66
2021/05/24 12:31:50;;;;;;;3.03;0.40;;;19.80;56.90;;;;;;5026734;28;20029;-65
2021/05/24 12:34:19;;;;;;;1.42;0.40;;;19.70;57.20;;;;;;5024456;28;20061;-65
2021/05/24 12:37:03;;;;;;;1.40;0.30;;;19.70;57.00;;;;;;5026597;28;20075;-66
2021/05/24 12:39:33;;;;;;;1.58;0.40;;;19.70;58.10;;;;;;5026668;28;20036;-66
2021/05/24 12:42:00;;;;;;;1.92;0.50;;;19.70;57.30;;;;;;5026806;28;20025;-66
2021/05/24 12:44:27;;;;;;;5.15;0.55;;;19.70;57.30;;;;;;5026996;28;20017;-67
2021/05/24 12:46:56;;;;;;;1.02;0.50;;;19.70;58.90;;;;;;5030503;28;20057;-65
2021/05/24 12:49:39;;;;;;;1.85;0.40;;;19.70;59.80;;;;;;5030186;28;20033;-66
2021/05/24 12:52:06;;;;;;;1.40;0.40;;;19.60;59.30;;;;;;5030688;28;20416;-65
2021/05/24 12:54:51;;;;;;;0.43;0.30;;;19.60;58.30;;;;;;5030239;28;20052;-65
2021/05/24 12:57:32;;;;;;;0.93;0.30;;;19.70;58.80;;;;;;5029181;28;20120;-66
2021/05/24 12:59:58;;;;;;;0.95;0.40;;;19.60;57.80;;;;;;5029226;28;20022;-65
2021/05/24 13:02:29;;;;;;;6.05;0.55;;;19.50;58.40;;;;;;5029617;28;20033;-66
2021/05/24 13:05:11;;;;;;;2.08;0.50;;;19.50;59.10;;;;;;5028951;28;20583;-66
2021/05/24 13:07:55;;;;;;;1.20;0.40;;;19.70;59.10;;;;;;5030136;28;20028;-65
2021/05/24 13:10:33;;;;;;;4.22;0.30;;;19.70;60.40;;;;;;5030367;28;20102;-66